Albertville, Minnesota
Current Conditions -  °F | °C
As of 5:55 PM on Wednesday 22 Oct 2014 (Local Time) from KCFE Reporting Station
Scattered Clouds Scattered Clouds  
Wind Chill: 59°   Ceiling: Unl
Heat Index: 59°   Visibility: 10mi
Dew Point: 42°   Wind: 12mph
Humidity: 53%   Direction: 130°SE
Pressure: 30.01"   Gusts: 21mph
Location:  45.24°N, 93.65°W
Report Text: KCFE 222255Z AUTO 13010G18KT 10SM SCT070 15/06 A3001 RMK AO2 T01510055
Loading
Personal Weather Stations






























Interactive Weather Map
Tropical Storm Tracking
New forecast layout! Learn more

10-Day Weather Forecast

Advertisements
Track Severe Weather on mobile